sensor_id;sensor_type;location;lat;lon;timestamp;P1;durP1;ratioP1;P2;durP2;ratioP2
51987;SDS011;38003;52.012;4.346;2022-08-21T00:00:38;7.10;;;1.88;;
51987;SDS011;38003;52.012;4.346;2022-08-21T00:03:11;8.35;;;2.08;;
51987;SDS011;38003;52.012;4.346;2022-08-21T00:05:42;6.57;;;2.40;;
51987;SDS011;38003;52.012;4.346;2022-08-21T00:08:16;4.53;;;2.00;;
51987;SDS011;38003;52.012;4.346;2022-08-21T00:10:44;6.07;;;2.13;;
51987;SDS011;38003;52.012;4.346;2022-08-21T00:13:13;8.15;;;2.28;;
51987;SDS011;38003;52.012;4.346;2022-08-21T00:15:44;5.05;;;2.30;;
51987;SDS011;38003;52.012;4.346;2022-08-21T00:18:13;6.65;;;2.20;;
51987;SDS011;38003;52.012;4.346;2022-08-21T00:20:42;4.90;;;2.10;;
51987;SDS011;38003;52.012;4.346;2022-08-21T00:23:11;9.02;;;2.15;;
51987;SDS011;38003;52.012;4.346;2022-08-21T00:25:40;7.03;;;2.72;;
51987;SDS011;38003;52.012;4.346;2022-08-21T00:28:09;6.93;;;1.90;;
51987;SDS011;38003;52.012;4.346;2022-08-21T00:30:37;6.18;;;2.22;;
51987;SDS011;38003;52.012;4.346;2022-08-21T00:33:06;8.70;;;2.70;;
51987;SDS011;38003;52.012;4.346;2022-08-21T00:35:38;6.90;;;1.88;;
51987;SDS011;38003;52.012;4.346;2022-08-21T00:38:08;5.07;;;2.17;;
51987;SDS011;38003;52.012;4.346;2022-08-21T00:40:39;7.57;;;2.20;;
51987;SDS011;38003;52.012;4.346;2022-08-21T00:43:16;6.90;;;1.88;;
51987;SDS011;38003;52.012;4.346;2022-08-21T00:45:47;4.65;;;1.60;;
51987;SDS011;38003;52.012;4.346;2022-08-21T00:48:15;8.27;;;2.08;;
51987;SDS011;38003;52.012;4.346;2022-08-21T00:50:46;5.78;;;2.08;;
51987;SDS011;38003;52.012;4.346;2022-08-21T00:53:19;6.93;;;2.38;;
51987;SDS011;38003;52.012;4.346;2022-08-21T00:55:50;5.15;;;1.90;;
51987;SDS011;38003;52.012;4.346;2022-08-21T00:58:23;7.45;;;2.10;;
51987;SDS011;38003;52.012;4.346;2022-08-21T01:00:55;7.22;;;2.15;;
51987;SDS011;38003;52.012;4.346;2022-08-21T01:03:27;6.90;;;2.38;;
51987;SDS011;38003;52.012;4.346;2022-08-21T01:05:56;6.22;;;2.22;;
51987;SDS011;38003;52.012;4.346;2022-08-21T01:08:24;9.93;;;2.17;;
51987;SDS011;38003;52.012;4.346;2022-08-21T01:10:53;7.63;;;2.17;;
51987;SDS011;38003;52.012;4.346;2022-08-21T01:13:22;8.00;;;2.30;;
51987;SDS011;38003;52.012;4.346;2022-08-21T01:15:52;6.53;;;2.20;;
51987;SDS011;38003;52.012;4.346;2022-08-21T01:18:22;6.00;;;2.10;;
51987;SDS011;38003;52.012;4.346;2022-08-21T01:20:59;8.27;;;2.30;;
51987;SDS011;38003;52.012;4.346;2022-08-21T01:23:33;7.32;;;2.58;;
51987;SDS011;38003;52.012;4.346;2022-08-21T01:26:02;6.88;;;2.30;;
51987;SDS011;38003;52.012;4.346;2022-08-21T01:28:31;7.20;;;2.20;;
51987;SDS011;38003;52.012;4.346;2022-08-21T01:31:04;4.82;;;1.75;;
51987;SDS011;38003;52.012;4.346;2022-08-21T01:33:34;6.43;;;2.22;;
51987;SDS011;38003;52.012;4.346;2022-08-21T01:36:09;7.40;;;2.35;;
51987;SDS011;38003;52.012;4.346;2022-08-21T01:38:51;5.55;;;2.20;;
51987;SDS011;38003;52.012;4.346;2022-08-21T01:41:19;6.57;;;2.05;;
51987;SDS011;38003;52.012;4.346;2022-08-21T01:43:47;6.28;;;2.05;;
51987;SDS011;38003;52.012;4.346;2022-08-21T01:46:15;10.10;;;2.58;;
51987;SDS011;38003;52.012;4.346;2022-08-21T01:48:44;7.43;;;2.22;;
51987;SDS011;38003;52.012;4.346;2022-08-21T01:51:13;6.22;;;1.90;;
51987;SDS011;38003;52.012;4.346;2022-08-21T01:53:41;5.63;;;2.00;;
51987;SDS011;38003;52.012;4.346;2022-08-21T01:56:10;4.57;;;1.88;;
51987;SDS011;38003;52.012;4.346;2022-08-21T01:58:41;10.63;;;2.30;;
51987;SDS011;38003;52.012;4.346;2022-08-21T02:01:11;5.57;;;2.25;;
51987;SDS011;38003;52.012;4.346;2022-08-21T02:03:40;6.13;;;2.30;;
51987;SDS011;38003;52.012;4.346;2022-08-21T02:06:11;9.02;;;2.20;;
51987;SDS011;38003;52.012;4.346;2022-08-21T02:08:44;8.77;;;2.78;;
51987;SDS011;38003;52.012;4.346;2022-08-21T02:11:12;7.95;;;2.45;;
51987;SDS011;38003;52.012;4.346;2022-08-21T02:13:40;7.97;;;2.92;;
51987;SDS011;38003;52.012;4.346;2022-08-21T02:16:08;9.40;;;2.95;;
51987;SDS011;38003;52.012;4.346;2022-08-21T02:18:38;6.43;;;2.15;;
51987;SDS011;38003;52.012;4.346;2022-08-21T02:21:06;8.25;;;2.72;;
51987;SDS011;38003;52.012;4.346;2022-08-21T02:23:38;4.93;;;2.38;;
51987;SDS011;38003;52.012;4.346;2022-08-21T02:26:15;10.50;;;2.67;;
51987;SDS011;38003;52.012;4.346;2022-08-21T02:28:50;7.97;;;2.30;;
51987;SDS011;38003;52.012;4.346;2022-08-21T02:31:28;6.68;;;2.40;;
51987;SDS011;38003;52.012;4.346;2022-08-21T02:33:57;9.07;;;2.47;;
51987;SDS011;38003;52.012;4.346;2022-08-21T02:36:25;5.18;;;2.28;;
51987;SDS011;38003;52.012;4.346;2022-08-21T02:38:55;5.53;;;2.38;;
51987;SDS011;38003;52.012;4.346;2022-08-21T02:41:23;6.53;;;2.45;;
51987;SDS011;38003;52.012;4.346;2022-08-21T02:43:51;9.35;;;2.25;;
51987;SDS011;38003;52.012;4.346;2022-08-21T02:46:19;5.28;;;2.30;;
51987;SDS011;38003;52.012;4.346;2022-08-21T02:48:48;5.85;;;2.40;;
51987;SDS011;38003;52.012;4.346;2022-08-21T02:51:17;5.97;;;2.47;;
51987;SDS011;38003;52.012;4.346;2022-08-21T02:53:46;5.40;;;2.35;;
51987;SDS011;38003;52.012;4.346;2022-08-21T02:56:17;10.40;;;2.50;;
51987;SDS011;38003;52.012;4.346;2022-08-21T02:58:47;5.35;;;2.60;;
51987;SDS011;38003;52.012;4.346;2022-08-21T03:01:17;5.50;;;2.70;;
51987;SDS011;38003;52.012;4.346;2022-08-21T03:03:46;8.25;;;2.80;;
51987;SDS011;38003;52.012;4.346;2022-08-21T03:06:17;9.70;;;3.28;;
51987;SDS011;38003;52.012;4.346;2022-08-21T03:08:47;7.88;;;2.70;;
51987;SDS011;38003;52.012;4.346;2022-08-21T03:11:16;9.02;;;2.80;;
51987;SDS011;38003;52.012;4.346;2022-08-21T03:13:45;12.80;;;3.53;;
51987;SDS011;38003;52.012;4.346;2022-08-21T03:16:13;7.60;;;2.67;;
51987;SDS011;38003;52.012;4.346;2022-08-21T03:18:41;7.10;;;2.22;;
51987;SDS011;38003;52.012;4.346;2022-08-21T03:21:09;7.88;;;2.58;;
51987;SDS011;38003;52.012;4.346;2022-08-21T03:23:39;8.00;;;2.70;;
51987;SDS011;38003;52.012;4.346;2022-08-21T03:26:09;10.27;;;3.00;;
51987;SDS011;38003;52.012;4.346;2022-08-21T03:28:38;7.40;;;2.90;;
51987;SDS011;38003;52.012;4.346;2022-08-21T03:31:06;8.17;;;3.00;;
51987;SDS011;38003;52.012;4.346;2022-08-21T03:33:34;8.10;;;2.83;;
51987;SDS011;38003;52.012;4.346;2022-08-21T03:36:04;5.55;;;2.63;;
51987;SDS011;38003;52.012;4.346;2022-08-21T03:38:34;8.00;;;3.03;;
51987;SDS011;38003;52.012;4.346;2022-08-21T03:41:02;8.40;;;3.50;;
51987;SDS011;38003;52.012;4.346;2022-08-21T03:43:31;9.45;;;3.05;;
51987;SDS011;38003;52.012;4.346;2022-08-21T03:46:01;8.60;;;3.33;;
51987;SDS011;38003;52.012;4.346;2022-08-21T03:48:30;10.75;;;4.22;;
51987;SDS011;38003;52.012;4.346;2022-08-21T03:50:59;6.73;;;3.50;;
51987;SDS011;38003;52.012;4.346;2022-08-21T03:53:26;11.40;;;4.05;;
51987;SDS011;38003;52.012;4.346;2022-08-21T03:55:54;11.53;;;3.57;;
51987;SDS011;38003;52.012;4.346;2022-08-21T03:58:23;10.87;;;3.57;;
51987;SDS011;38003;52.012;4.346;2022-08-21T04:00:54;12.17;;;3.80;;
51987;SDS011;38003;52.012;4.346;2022-08-21T04:03:26;10.37;;;3.87;;
51987;SDS011;38003;52.012;4.346;2022-08-21T04:05:54;8.05;;;3.55;;
51987;SDS011;38003;52.012;4.346;2022-08-21T04:08:23;6.80;;;3.83;;
51987;SDS011;38003;52.012;4.346;2022-08-21T04:10:52;9.82;;;4.32;;
51987;SDS011;38003;52.012;4.346;2022-08-21T04:13:24;15.00;;;4.57;;
51987;SDS011;38003;52.012;4.346;2022-08-21T04:16:08;8.87;;;3.50;;
51987;SDS011;38003;52.012;4.346;2022-08-21T04:18:37;12.07;;;4.20;;
51987;SDS011;38003;52.012;4.346;2022-08-21T04:21:05;11.18;;;4.07;;
51987;SDS011;38003;52.012;4.346;2022-08-21T04:23:38;11.97;;;3.80;;
51987;SDS011;38003;52.012;4.346;2022-08-21T04:26:06;11.00;;;4.33;;
51987;SDS011;38003;52.012;4.346;2022-08-21T04:28:34;12.20;;;3.97;;
51987;SDS011;38003;52.012;4.346;2022-08-21T04:31:02;9.45;;;4.03;;
51987;SDS011;38003;52.012;4.346;2022-08-21T04:33:30;6.13;;;4.10;;
51987;SDS011;38003;52.012;4.346;2022-08-21T04:35:59;9.73;;;4.30;;
51987;SDS011;38003;52.012;4.346;2022-08-21T04:38:27;7.47;;;3.87;;
51987;SDS011;38003;52.012;4.346;2022-08-21T04:41:03;9.45;;;4.32;;
51987;SDS011;38003;52.012;4.346;2022-08-21T04:43:31;8.30;;;4.30;;
51987;SDS011;38003;52.012;4.346;2022-08-21T04:45:59;10.83;;;4.50;;
51987;SDS011;38003;52.012;4.346;2022-08-21T04:48:27;10.07;;;4.43;;
51987;SDS011;38003;52.012;4.346;2022-08-21T04:50:56;8.60;;;3.78;;
51987;SDS011;38003;52.012;4.346;2022-08-21T04:53:31;10.10;;;4.40;;
51987;SDS011;38003;52.012;4.346;2022-08-21T04:56:06;8.73;;;4.32;;
51987;SDS011;38003;52.012;4.346;2022-08-21T04:58:36;9.90;;;4.20;;
51987;SDS011;38003;52.012;4.346;2022-08-21T05:01:07;11.95;;;4.40;;
51987;SDS011;38003;52.012;4.346;2022-08-21T05:03:40;9.97;;;4.27;;
51987;SDS011;38003;52.012;4.346;2022-08-21T05:06:10;9.20;;;4.60;;
51987;SDS011;38003;52.012;4.346;2022-08-21T05:08:41;8.85;;;4.07;;
51987;SDS011;38003;52.012;4.346;2022-08-21T05:11:11;11.73;;;4.35;;
51987;SDS011;38003;52.012;4.346;2022-08-21T05:13:39;10.82;;;4.38;;
51987;SDS011;38003;52.012;4.346;2022-08-21T05:16:08;11.00;;;4.33;;
51987;SDS011;38003;52.012;4.346;2022-08-21T05:18:36;12.98;;;4.40;;
51987;SDS011;38003;52.012;4.346;2022-08-21T05:21:04;8.43;;;4.30;;
51987;SDS011;38003;52.012;4.346;2022-08-21T05:23:35;13.27;;;5.00;;
51987;SDS011;38003;52.012;4.346;2022-08-21T05:26:08;9.75;;;4.00;;
51987;SDS011;38003;52.012;4.346;2022-08-21T05:28:43;15.10;;;4.53;;
51987;SDS011;38003;52.012;4.346;2022-08-21T05:31:12;13.10;;;4.30;;
51987;SDS011;38003;52.012;4.346;2022-08-21T05:33:40;10.85;;;4.60;;
51987;SDS011;38003;52.012;4.346;2022-08-21T05:36:09;11.13;;;4.87;;
51987;SDS011;38003;52.012;4.346;2022-08-21T05:38:40;12.43;;;4.80;;
51987;SDS011;38003;52.012;4.346;2022-08-21T05:41:10;13.20;;;4.53;;
51987;SDS011;38003;52.012;4.346;2022-08-21T05:43:39;12.67;;;4.50;;
51987;SDS011;38003;52.012;4.346;2022-08-21T05:46:07;16.23;;;5.33;;
51987;SDS011;38003;52.012;4.346;2022-08-21T05:48:36;11.57;;;4.37;;
51987;SDS011;38003;52.012;4.346;2022-08-21T05:51:09;9.93;;;4.33;;
51987;SDS011;38003;52.012;4.346;2022-08-21T05:53:39;10.47;;;4.93;;
51987;SDS011;38003;52.012;4.346;2022-08-21T05:56:13;11.97;;;4.60;;
51987;SDS011;38003;52.012;4.346;2022-08-21T05:58:41;9.73;;;4.40;;
51987;SDS011;38003;52.012;4.346;2022-08-21T06:01:10;12.50;;;4.00;;
51987;SDS011;38003;52.012;4.346;2022-08-21T06:03:39;11.80;;;4.40;;
51987;SDS011;38003;52.012;4.346;2022-08-21T06:06:07;15.73;;;5.37;;
51987;SDS011;38003;52.012;4.346;2022-08-21T06:08:36;8.93;;;3.90;;
51987;SDS011;38003;52.012;4.346;2022-08-21T06:11:04;10.25;;;4.57;;
51987;SDS011;38003;52.012;4.346;2022-08-21T06:13:38;9.63;;;4.40;;
51987;SDS011;38003;52.012;4.346;2022-08-21T06:16:10;10.80;;;4.50;;
51987;SDS011;38003;52.012;4.346;2022-08-21T06:18:41;10.37;;;4.37;;
51987;SDS011;38003;52.012;4.346;2022-08-21T06:21:12;10.30;;;4.53;;
51987;SDS011;38003;52.012;4.346;2022-08-21T06:23:41;13.27;;;4.50;;
51987;SDS011;38003;52.012;4.346;2022-08-21T06:26:15;14.43;;;4.87;;
51987;SDS011;38003;52.012;4.346;2022-08-21T06:28:48;11.75;;;4.22;;
51987;SDS011;38003;52.012;4.346;2022-08-21T06:31:22;11.87;;;4.27;;
51987;SDS011;38003;52.012;4.346;2022-08-21T06:33:59;11.07;;;4.20;;
51987;SDS011;38003;52.012;4.346;2022-08-21T06:36:33;13.25;;;4.25;;
51987;SDS011;38003;52.012;4.346;2022-08-21T06:41:57;13.02;;;4.45;;
51987;SDS011;38003;52.012;4.346;2022-08-21T06:47:23;17.00;;;4.82;;
51987;SDS011;38003;52.012;4.346;2022-08-21T06:49:52;7.22;;;4.03;;
51987;SDS011;38003;52.012;4.346;2022-08-21T06:52:20;8.85;;;3.53;;
51987;SDS011;38003;52.012;4.346;2022-08-21T06:54:49;12.13;;;4.20;;
51987;SDS011;38003;52.012;4.346;2022-08-21T06:57:17;14.30;;;4.78;;
51987;SDS011;38003;52.012;4.346;2022-08-21T06:59:45;10.45;;;3.50;;
51987;SDS011;38003;52.012;4.346;2022-08-21T07:02:14;11.63;;;4.40;;
51987;SDS011;38003;52.012;4.346;2022-08-21T07:04:42;8.73;;;3.70;;
51987;SDS011;38003;52.012;4.346;2022-08-21T07:07:10;10.20;;;4.47;;
51987;SDS011;38003;52.012;4.346;2022-08-21T07:09:38;14.40;;;5.07;;
51987;SDS011;38003;52.012;4.346;2022-08-21T07:12:09;12.60;;;4.28;;
51987;SDS011;38003;52.012;4.346;2022-08-21T07:14:37;12.68;;;4.35;;
51987;SDS011;38003;52.012;4.346;2022-08-21T07:17:05;12.57;;;4.22;;
51987;SDS011;38003;52.012;4.346;2022-08-21T07:19:34;9.45;;;3.58;;
51987;SDS011;38003;52.012;4.346;2022-08-21T07:22:02;10.55;;;3.90;;
51987;SDS011;38003;52.012;4.346;2022-08-21T07:24:33;7.15;;;3.50;;
51987;SDS011;38003;52.012;4.346;2022-08-21T07:27:01;12.43;;;4.30;;
51987;SDS011;38003;52.012;4.346;2022-08-21T07:29:35;11.07;;;3.97;;
51987;SDS011;38003;52.012;4.346;2022-08-21T07:32:06;13.10;;;3.25;;
51987;SDS011;38003;52.012;4.346;2022-08-21T07:34:38;12.40;;;3.40;;
51987;SDS011;38003;52.012;4.346;2022-08-21T07:37:06;11.77;;;3.38;;
51987;SDS011;38003;52.012;4.346;2022-08-21T07:39:35;11.70;;;3.85;;
51987;SDS011;38003;52.012;4.346;2022-08-21T07:42:04;11.02;;;3.55;;
51987;SDS011;38003;52.012;4.346;2022-08-21T07:44:33;9.57;;;3.50;;
51987;SDS011;38003;52.012;4.346;2022-08-21T07:47:02;12.55;;;3.55;;
51987;SDS011;38003;52.012;4.346;2022-08-21T07:49:32;10.02;;;3.47;;
51987;SDS011;38003;52.012;4.346;2022-08-21T07:52:04;12.38;;;4.20;;
51987;SDS011;38003;52.012;4.346;2022-08-21T07:54:32;11.20;;;3.80;;
51987;SDS011;38003;52.012;4.346;2022-08-21T07:57:00;8.40;;;3.22;;
51987;SDS011;38003;52.012;4.346;2022-08-21T07:59:29;8.32;;;3.40;;
51987;SDS011;38003;52.012;4.346;2022-08-21T08:01:57;12.15;;;2.83;;
51987;SDS011;38003;52.012;4.346;2022-08-21T08:04:32;16.10;;;3.55;;
51987;SDS011;38003;52.012;4.346;2022-08-21T08:07:01;10.23;;;3.10;;
51987;SDS011;38003;52.012;4.346;2022-08-21T08:09:30;14.32;;;3.47;;
51987;SDS011;38003;52.012;4.346;2022-08-21T08:12:01;12.05;;;3.67;;
51987;SDS011;38003;52.012;4.346;2022-08-21T08:14:30;11.77;;;3.40;;
51987;SDS011;38003;52.012;4.346;2022-08-21T08:16:58;9.75;;;2.80;;
51987;SDS011;38003;52.012;4.346;2022-08-21T08:19:27;12.30;;;2.97;;
51987;SDS011;38003;52.012;4.346;2022-08-21T08:21:55;11.75;;;3.08;;
51987;SDS011;38003;52.012;4.346;2022-08-21T08:24:24;9.35;;;2.47;;
51987;SDS011;38003;52.012;4.346;2022-08-21T08:26:53;9.73;;;2.47;;
51987;SDS011;38003;52.012;4.346;2022-08-21T08:29:23;6.90;;;2.65;;
51987;SDS011;38003;52.012;4.346;2022-08-21T08:31:50;10.25;;;2.88;;
51987;SDS011;38003;52.012;4.346;2022-08-21T08:34:18;11.10;;;2.70;;
51987;SDS011;38003;52.012;4.346;2022-08-21T08:36:50;9.45;;;3.08;;
51987;SDS011;38003;52.012;4.346;2022-08-21T08:39:20;9.73;;;3.05;;
51987;SDS011;38003;52.012;4.346;2022-08-21T08:41:56;10.85;;;2.22;;
51987;SDS011;38003;52.012;4.346;2022-08-21T08:44:50;6.05;;;2.08;;
51987;SDS011;38003;52.012;4.346;2022-08-21T08:47:24;7.60;;;2.08;;
51987;SDS011;38003;52.012;4.346;2022-08-21T08:49:55;8.00;;;2.13;;
51987;SDS011;38003;52.012;4.346;2022-08-21T08:52:29;7.32;;;2.00;;
51987;SDS011;38003;52.012;4.346;2022-08-21T08:55:19;6.95;;;1.90;;
51987;SDS011;38003;52.012;4.346;2022-08-21T08:57:54;7.80;;;2.22;;
51987;SDS011;38003;52.012;4.346;2022-08-21T09:00:22;6.75;;;2.00;;
51987;SDS011;38003;52.012;4.346;2022-08-21T09:02:51;8.73;;;2.00;;
51987;SDS011;38003;52.012;4.346;2022-08-21T09:05:24;8.73;;;1.95;;
51987;SDS011;38003;52.012;4.346;2022-08-21T09:08:01;5.43;;;1.67;;
51987;SDS011;38003;52.012;4.346;2022-08-21T09:10:46;4.80;;;1.65;;
51987;SDS011;38003;52.012;4.346;2022-08-21T09:13:30;10.40;;;2.00;;
51987;SDS011;38003;52.012;4.346;2022-08-21T09:16:09;8.82;;;2.20;;
51987;SDS011;38003;52.012;4.346;2022-08-21T09:18:44;4.85;;;1.75;;
51987;SDS011;38003;52.012;4.346;2022-08-21T09:21:24;3.50;;;1.75;;
51987;SDS011;38003;52.012;4.346;2022-08-21T09:24:08;6.50;;;1.90;;
51987;SDS011;38003;52.012;4.346;2022-08-21T09:26:47;5.35;;;1.70;;
51987;SDS011;38003;52.012;4.346;2022-08-21T09:29:22;4.53;;;1.58;;
51987;SDS011;38003;52.012;4.346;2022-08-21T09:31:54;8.70;;;2.35;;
51987;SDS011;38003;52.012;4.346;2022-08-21T09:34:24;3.95;;;1.77;;
51987;SDS011;38003;52.012;4.346;2022-08-21T09:36:53;8.32;;;2.10;;
51987;SDS011;38003;52.012;4.346;2022-08-21T09:39:23;6.97;;;1.90;;
51987;SDS011;38003;52.012;4.346;2022-08-21T09:41:57;6.13;;;1.63;;
51987;SDS011;38003;52.012;4.346;2022-08-21T09:44:31;5.22;;;1.90;;
51987;SDS011;38003;52.012;4.346;2022-08-21T09:47:02;5.63;;;1.88;;
51987;SDS011;38003;52.012;4.346;2022-08-21T09:49:31;7.60;;;2.42;;
51987;SDS011;38003;52.012;4.346;2022-08-21T09:52:00;9.13;;;1.98;;
51987;SDS011;38003;52.012;4.346;2022-08-21T09:54:31;6.80;;;2.45;;
51987;SDS011;38003;52.012;4.346;2022-08-21T09:57:10;10.85;;;2.30;;
51987;SDS011;38003;52.012;4.346;2022-08-21T10:00:08;7.35;;;2.53;;
51987;SDS011;38003;52.012;4.346;2022-08-21T10:02:42;8.13;;;2.80;;
51987;SDS011;38003;52.012;4.346;2022-08-21T10:05:15;6.28;;;2.13;;
51987;SDS011;38003;52.012;4.346;2022-08-21T10:07:45;7.90;;;2.00;;
51987;SDS011;38003;52.012;4.346;2022-08-21T10:10:14;6.80;;;1.98;;
51987;SDS011;38003;52.012;4.346;2022-08-21T10:12:46;6.38;;;1.70;;
51987;SDS011;38003;52.012;4.346;2022-08-21T10:15:22;8.63;;;2.30;;
51987;SDS011;38003;52.012;4.346;2022-08-21T10:17:58;7.18;;;1.40;;
51987;SDS011;38003;52.012;4.346;2022-08-21T10:20:33;8.80;;;1.70;;
51987;SDS011;38003;52.012;4.346;2022-08-21T10:23:11;7.30;;;2.03;;
51987;SDS011;38003;52.012;4.346;2022-08-21T10:25:54;4.47;;;1.42;;
51987;SDS011;38003;52.012;4.346;2022-08-21T10:28:40;7.50;;;2.03;;
51987;SDS011;38003;52.012;4.346;2022-08-21T10:31:18;6.60;;;1.73;;
51987;SDS011;38003;52.012;4.346;2022-08-21T10:33:52;6.00;;;1.40;;
51987;SDS011;38003;52.012;4.346;2022-08-21T10:36:28;4.50;;;1.60;;
51987;SDS011;38003;52.012;4.346;2022-08-21T10:39:07;6.85;;;2.13;;
51987;SDS011;38003;52.012;4.346;2022-08-21T10:42:08;5.20;;;1.65;;
51987;SDS011;38003;52.012;4.346;2022-08-21T10:44:56;4.82;;;1.33;;
51987;SDS011;38003;52.012;4.346;2022-08-21T10:47:37;4.97;;;1.50;;
51987;SDS011;38003;52.012;4.346;2022-08-21T10:50:10;6.20;;;1.80;;
51987;SDS011;38003;52.012;4.346;2022-08-21T10:52:50;4.10;;;1.38;;
51987;SDS011;38003;52.012;4.346;2022-08-21T10:55:30;4.43;;;1.20;;
51987;SDS011;38003;52.012;4.346;2022-08-21T10:58:04;8.98;;;1.60;;
51987;SDS011;38003;52.012;4.346;2022-08-21T11:00:39;5.43;;;1.50;;
51987;SDS011;38003;52.012;4.346;2022-08-21T11:03:13;3.45;;;1.30;;
51987;SDS011;38003;52.012;4.346;2022-08-21T11:05:46;5.47;;;1.33;;
51987;SDS011;38003;52.012;4.346;2022-08-21T11:08:17;6.53;;;1.45;;
51987;SDS011;38003;52.012;4.346;2022-08-21T11:10:53;6.43;;;1.58;;
51987;SDS011;38003;52.012;4.346;2022-08-21T11:13:27;5.88;;;1.55;;
51987;SDS011;38003;52.012;4.346;2022-08-21T11:16:00;5.95;;;1.50;;
51987;SDS011;38003;52.012;4.346;2022-08-21T11:18:34;3.95;;;1.40;;
51987;SDS011;38003;52.012;4.346;2022-08-21T11:21:06;5.88;;;1.40;;
51987;SDS011;38003;52.012;4.346;2022-08-21T11:23:47;6.15;;;1.30;;
51987;SDS011;38003;52.012;4.346;2022-08-21T11:26:23;4.22;;;1.13;;
51987;SDS011;38003;52.012;4.346;2022-08-21T11:28:58;6.03;;;1.33;;
51987;SDS011;38003;52.012;4.346;2022-08-21T11:31:34;5.53;;;1.50;;
51987;SDS011;38003;52.012;4.346;2022-08-21T11:34:13;6.47;;;1.85;;
51987;SDS011;38003;52.012;4.346;2022-08-21T11:36:53;3.92;;;1.20;;
51987;SDS011;38003;52.012;4.346;2022-08-21T11:39:30;4.65;;;1.20;;
51987;SDS011;38003;52.012;4.346;2022-08-21T11:42:12;4.05;;;1.58;;
51987;SDS011;38003;52.012;4.346;2022-08-21T11:44:49;3.58;;;1.02;;
51987;SDS011;38003;52.012;4.346;2022-08-21T11:47:25;5.22;;;1.20;;
51987;SDS011;38003;52.012;4.346;2022-08-21T11:50:10;3.92;;;0.95;;
51987;SDS011;38003;52.012;4.346;2022-08-21T11:53:01;5.22;;;1.45;;
51987;SDS011;38003;52.012;4.346;2022-08-21T11:55:36;5.10;;;1.52;;
51987;SDS011;38003;52.012;4.346;2022-08-21T11:58:10;3.17;;;1.10;;
51987;SDS011;38003;52.012;4.346;2022-08-21T12:00:44;5.53;;;1.40;;
51987;SDS011;38003;52.012;4.346;2022-08-21T12:03:22;4.43;;;1.10;;
51987;SDS011;38003;52.012;4.346;2022-08-21T12:05:55;4.05;;;1.20;;
51987;SDS011;38003;52.012;4.346;2022-08-21T12:08:26;5.32;;;1.23;;
51987;SDS011;38003;52.012;4.346;2022-08-21T12:11:00;3.55;;;1.02;;
51987;SDS011;38003;52.012;4.346;2022-08-21T12:13:31;2.85;;;0.90;;
51987;SDS011;38003;52.012;4.346;2022-08-21T12:16:08;5.28;;;1.33;;
51987;SDS011;38003;52.012;4.346;2022-08-21T12:18:37;6.32;;;1.40;;
51987;SDS011;38003;52.012;4.346;2022-08-21T12:21:17;5.90;;;1.50;;
51987;SDS011;38003;52.012;4.346;2022-08-21T12:23:57;3.97;;;1.00;;
51987;SDS011;38003;52.012;4.346;2022-08-21T12:26:29;3.42;;;1.17;;
51987;SDS011;38003;52.012;4.346;2022-08-21T12:29:07;5.38;;;1.20;;
51987;SDS011;38003;52.012;4.346;2022-08-21T12:31:50;5.55;;;1.25;;
51987;SDS011;38003;52.012;4.346;2022-08-21T12:34:25;4.32;;;1.33;;
51987;SDS011;38003;52.012;4.346;2022-08-21T12:37:01;4.53;;;1.10;;
51987;SDS011;38003;52.012;4.346;2022-08-21T12:39:34;4.72;;;1.23;;
51987;SDS011;38003;52.012;4.346;2022-08-21T12:42:06;3.33;;;1.00;;
51987;SDS011;38003;52.012;4.346;2022-08-21T12:44:43;5.78;;;1.02;;
51987;SDS011;38003;52.012;4.346;2022-08-21T12:47:16;4.38;;;1.33;;
51987;SDS011;38003;52.012;4.346;2022-08-21T12:49:52;5.57;;;1.30;;
51987;SDS011;38003;52.012;4.346;2022-08-21T12:52:30;4.88;;;1.20;;
51987;SDS011;38003;52.012;4.346;2022-08-21T12:55:05;6.43;;;1.45;;
51987;SDS011;38003;52.012;4.346;2022-08-21T12:57:35;4.95;;;1.63;;
51987;SDS011;38003;52.012;4.346;2022-08-21T13:00:05;6.03;;;1.50;;
51987;SDS011;38003;52.012;4.346;2022-08-21T13:02:38;4.43;;;1.20;;
51987;SDS011;38003;52.012;4.346;2022-08-21T13:05:12;5.80;;;1.33;;
51987;SDS011;38003;52.012;4.346;2022-08-21T13:07:45;4.50;;;1.20;;
51987;SDS011;38003;52.012;4.346;2022-08-21T13:10:16;5.30;;;1.65;;
51987;SDS011;38003;52.012;4.346;2022-08-21T13:12:47;5.28;;;1.40;;
51987;SDS011;38003;52.012;4.346;2022-08-21T13:15:21;4.68;;;1.10;;
51987;SDS011;38003;52.012;4.346;2022-08-21T13:17:58;6.47;;;1.70;;
51987;SDS011;38003;52.012;4.346;2022-08-21T13:20:29;5.30;;;1.55;;
51987;SDS011;38003;52.012;4.346;2022-08-21T13:23:01;4.90;;;1.30;;
51987;SDS011;38003;52.012;4.346;2022-08-21T13:25:33;4.93;;;1.20;;
51987;SDS011;38003;52.012;4.346;2022-08-21T13:28:04;3.95;;;1.33;;
51987;SDS011;38003;52.012;4.346;2022-08-21T13:30:37;5.28;;;1.50;;
51987;SDS011;38003;52.012;4.346;2022-08-21T13:33:06;6.65;;;1.60;;
51987;SDS011;38003;52.012;4.346;2022-08-21T13:35:46;5.53;;;1.27;;
51987;SDS011;38003;52.012;4.346;2022-08-21T13:38:17;7.30;;;1.95;;
51987;SDS011;38003;52.012;4.346;2022-08-21T13:40:54;6.18;;;1.35;;
51987;SDS011;38003;52.012;4.346;2022-08-21T13:43:25;4.70;;;1.45;;
51987;SDS011;38003;52.012;4.346;2022-08-21T13:45:55;5.47;;;1.90;;
51987;SDS011;38003;52.012;4.346;2022-08-21T13:48:25;6.00;;;1.67;;
51987;SDS011;38003;52.012;4.346;2022-08-21T13:50:55;5.47;;;1.58;;
51987;SDS011;38003;52.012;4.346;2022-08-21T13:53:31;5.78;;;1.50;;
51987;SDS011;38003;52.012;4.346;2022-08-21T13:56:03;5.47;;;1.85;;
51987;SDS011;38003;52.012;4.346;2022-08-21T13:58:32;8.68;;;1.90;;
51987;SDS011;38003;52.012;4.346;2022-08-21T14:01:15;6.45;;;2.20;;
51987;SDS011;38003;52.012;4.346;2022-08-21T14:03:46;6.35;;;1.58;;
51987;SDS011;38003;52.012;4.346;2022-08-21T14:06:16;6.50;;;1.80;;
51987;SDS011;38003;52.012;4.346;2022-08-21T14:08:50;8.20;;;1.77;;
51987;SDS011;38003;52.012;4.346;2022-08-21T14:11:21;5.85;;;1.80;;
51987;SDS011;38003;52.012;4.346;2022-08-21T14:13:51;5.70;;;1.92;;
51987;SDS011;38003;52.012;4.346;2022-08-21T14:16:25;5.80;;;1.85;;
51987;SDS011;38003;52.012;4.346;2022-08-21T14:19:07;6.20;;;2.08;;
51987;SDS011;38003;52.012;4.346;2022-08-21T14:21:37;6.45;;;1.98;;
51987;SDS011;38003;52.012;4.346;2022-08-21T14:24:10;5.80;;;1.90;;
51987;SDS011;38003;52.012;4.346;2022-08-21T14:26:44;8.55;;;1.73;;
51987;SDS011;38003;52.012;4.346;2022-08-21T14:29:16;6.35;;;2.22;;
51987;SDS011;38003;52.012;4.346;2022-08-21T14:31:49;7.30;;;2.05;;
51987;SDS011;38003;52.012;4.346;2022-08-21T14:34:18;4.00;;;1.80;;
51987;SDS011;38003;52.012;4.346;2022-08-21T14:36:47;8.90;;;2.33;;
51987;SDS011;38003;52.012;4.346;2022-08-21T14:39:17;3.90;;;1.92;;
51987;SDS011;38003;52.012;4.346;2022-08-21T14:41:46;6.72;;;1.80;;
51987;SDS011;38003;52.012;4.346;2022-08-21T14:44:16;5.75;;;1.98;;
51987;SDS011;38003;52.012;4.346;2022-08-21T14:46:45;5.18;;;1.55;;
51987;SDS011;38003;52.012;4.346;2022-08-21T14:49:22;7.20;;;1.90;;
51987;SDS011;38003;52.012;4.346;2022-08-21T14:51:52;4.50;;;1.75;;
51987;SDS011;38003;52.012;4.346;2022-08-21T14:54:24;5.93;;;1.95;;
51987;SDS011;38003;52.012;4.346;2022-08-21T14:56:57;6.45;;;2.28;;
51987;SDS011;38003;52.012;4.346;2022-08-21T14:59:27;5.57;;;1.92;;
51987;SDS011;38003;52.012;4.346;2022-08-21T15:01:56;4.75;;;1.50;;
51987;SDS011;38003;52.012;4.346;2022-08-21T15:04:24;6.72;;;1.90;;
51987;SDS011;38003;52.012;4.346;2022-08-21T15:06:52;4.60;;;1.67;;
51987;SDS011;38003;52.012;4.346;2022-08-21T15:09:20;7.45;;;1.92;;
51987;SDS011;38003;52.012;4.346;2022-08-21T15:11:49;7.43;;;1.92;;
51987;SDS011;38003;52.012;4.346;2022-08-21T15:14:19;7.28;;;2.08;;
51987;SDS011;38003;52.012;4.346;2022-08-21T15:16:53;4.93;;;1.70;;
51987;SDS011;38003;52.012;4.346;2022-08-21T15:19:21;5.45;;;1.60;;